Questo sito fa uso di cookie per migliorare l’esperienza di navigazione degli utenti e per raccogliere informazioni sull’utilizzo del sito stesso. Proseguendo nella navigazione si accetta l’uso dei cookie; in caso contrario è possibile abbandonare il sito.

[source: ADDS]
METAR
LIPB 302050Z 16005KT CAVOK 14/03 Q1013 =
LIPC 302155Z 00000KT CAVOK 08/06 Q1014 RMK SKC VIS MIN 9999 WIND THR11 00000KT WIND THR29 23001KT BLU =
LIPE 302220Z VRB03KT CAVOK 10/04 Q1014 =
LIPF 301755Z 00000KT CAVOK 16/04 Q1013 RMK SKC VIS MIN 9999 =
LIPL 302155Z /////KT CAVOK 10/08 Q1014 RMK SKC VIS MIN 9999 WIND THR31 06004KT BLU =
LIPO 302150Z 05005KT CAVOK 11/05 Q1013 =
LIPQ 302220Z AUTO 10006KT 9999 NCD 11/03 Q1014 =
LIPR 302215Z 19002KT CAVOK 09/07 Q1013 =
LIPS 302155Z 00006KT CAVOK 13/09 Q1013 RMK SKC VIS MIN 9999 WIND THR26 00000KT WIND THR08 23002KT BLU =
LIPX 302220Z 33005KT CAVOK 09/05 Q1014 =
LIPY 302150Z 19003KT CAVOK 08/03 Q1014 =
LIPZ 302220Z 33005KT CAVOK 12/06 Q1014 NOSIG =
LIVC 302155Z 21005KT CAVOK 01/M02 Q1014 RMK SKC MON LIB VAL NIL VIS MIN 9999 =
LIVD 301755Z ///05KT CAVOK 10/02 Q1012 RMK SKC VIS MIN 9999 =
LIVE 302155Z 16006KT 9999 FEW035 04/M01 Q1011 RMK FEW VIS MIN 9999 =
LIVF 302155Z 21005KT CAVOK 08/M02 Q1013 RMK SKC MON LIB VAL NIL VIS MIN 9999 =
LIVO 301755Z 08005KT CAVOK 11/02 Q1013 RMK FEW FEW060 VIS MIN 9999 =
LIVP 302155Z 15013KT 9999 FEW050 M02/M04 Q1013 RMK FEW MON LIB VAL S FOSCHIA SKC SUP VIS MIN 9999 =
LIVR 302055Z 14003KT 0100 FZFG VV/// M01/M02 Q1014 RMK MON INVIS VIS MIN 0100 =
LIVT 302155Z 03004KT CAVOK 14/01 Q1013 RMK SKC QUK / QUL / VIS MAR 20 KM VIS MIN 9999 =
LIMC 302220Z 03003KT 350V050 9999 BKN080 12/05 Q1014 NOSIG =
LIME 302220Z 03004KT 9999 BKN080 11/04 Q1014 NOSIG =
LIMF 302220Z 36003KT 9999 BKN070 12/05 Q1013 =
LIMG 301750Z 31004KT 9999 FEW060 14/09 Q1012 =
LIMH 302155Z 18025KT 0100 FZFG VV/// M08/M08 Q1011 RMK MON INVIS VAL INVIS VIS MIN 0100 =
LIMJ 302220Z 03005KT CAVOK 14/07 Q1013 =
LIMK 302155Z 04005KT 9999 SCT040 10/M00 Q1013 RMK OVC SCT060 VAL NIL VIS MIN 9999 =
LIML 302220Z VRB02KT 9999 BKN090 14/04 Q1013 NOSIG =
LIMU 302155Z 02004KT 9999 FEW020 14/08 Q1013 RMK BKN BKN080 QUK / QUL / VIS MAR 20 KM VIS MIN 9999 =
LIMY 301755Z 08007KT CAVOK 14/05 Q1013 RMK BKN SCT070 SCT080 VAL FOSCHIA VIS MIN 9999 =
TAF
TAF LIPB 301700Z 3018/0118 VRB05KT 9999 SCT060 BECMG 0108/0110 18010KT TEMPO 0114/0118 4000 RA =
TAF COR LIPC 302000Z 3021/0106 VRB03KT CAVOK =
TAF LIPE 301700Z 3018/0118 VRB05KT 9999 FEW050 BECMG 0108/0110 22010KT TEMPO 0114/0118 RA =
TAF LIPH 301700Z 3018/0118 VRB05KT 9999 SCT060 TEMPO 0115/0118 RA =
TAF LIPI 301400Z 3015/3024 VRB05KT 9999 FEW040 =
TAF COR LIPL 302000Z 3021/0106 VRB03KT CAVOK =
TAF LIPO 301700Z 3018/0118 10008KT 9999 SCT080 TEMPO 0112/0118 RA =
TAF LIPQ 301700Z 3018/0118 08010KT 9999 SCT050 BECMG 0110/0112 19008KT =
TAF COR LIPR 302000Z 3021/0106 VRB03KT CAVOK =
TAF COR LIPS 302000Z 3021/0106 VRB03KT CAVOK =
TAF LIPX 302000Z 3021/0106 VRB05KT CAVOK =
TAF LIPY 301700Z 3018/0118 VRB05KT CAVOK BECMG 0110/0112 08010KT BECMG 0116/0118 VRB05KT =
TAF LIPZ 301700Z 3018/0124 17008KT 9999 SCT040 BECMG 3020/3022 04010KT BECMG 0109/0111 15012KT TEMPO 0116/0124 4000 RA BECMG 0118/0120 03008KT =
TAF LIMC 301700Z 3018/0124 VRB05KT 9999 BKN050 BECMG 0106/0108 4000 RA BECMG 0114/0116 8000 NSW =
TAF LIME 301700Z 3018/0118 12008KT 9999 BKN050 BECMG 0107/0109 4000 RA BECMG 0117/0118 8000 NSW =
TAF LIMF 301700Z 3018/0118 VRB05KT 9999 BKN050 BECMG 0102/0104 4000 RA BECMG 0112/0114 8000 NSW =
TAF LIMJ 301700Z 3018/0118 20010KT 9999 SCT070 TEMPO 0105/0115 SHRA BKN014 BKN060 =
TAF LIML 301700Z 3018/0118 10008KT 9999 BKN050 BECMG 0107/0109 4000 RA BECMG 0116/0118 8000 NSW =
SR / SS: 04:01 / 18:18 UTC (Effemeridi Aeroporto di Padova - LIPU 2017-04-30)

Immagini e previsioni meteo non aeronautiche

 

 

Immagini dal Radar Meteorologico del sito ARPAV. Orario UTC.

 

Immagine dal sito Meteo Sat Online

 

Legenda codici ICAO del nord Italia

 

In ordine di codice   In ordine di località
LIMC
Milano / Malpensa LIMG Albenga
LIME Bergamo / Orio Al Serio LIPA Aviano
LIMF Torino / Caselle LIME Bergamo / Orio Al Serio
LIMG Albenga LIPE Bologna / Borgo Panigale
LIMH Pian Rosa LIPB Bolzano
LIMJ Genova / Sestri LIPL Brescia / Ghedi
LIMK Torino / Bric Della Croce LIPO Brescia / Montichiari
LIML Milano / Linate LIMU Capo Mele
LIMN Novara / Cameri LIPC Cervia
LIMO Monte Bisbino LIVD Dobbiaco
LIMS Piacenza LIPP Dova Area Control Center
LIMT Passo Della Cisa LIPY Falconara
LIMU Capo Mele LIPF Ferrara
LIMV Passo Dei Giovi LIPK Forli
LIMY Monte Malanotte LIVF Frontone
LIPA Aviano LIMJ Genova / Sestri
LIPB Bolzano LIML Milano / Linate
LIPC Cervia
LIMC
Milano / Malpensa
LIPD Udine / Campoformido LIMO Monte Bisbino
LIPE Bologna / Borgo Panigale LIVC Monte Cimone
LIPF Ferrara LIMY Monte Malanotte
LIPH Treviso / S. Angelo LIMN Novara / Cameri
LIPI Udine / Rivolto LIPU Padova
LIPK Forli LIVP Paganella
LIPL Brescia / Ghedi LIMV Passo Dei Giovi
LIPO Brescia / Montichiari LIMT Passo Della Cisa
LIPP Dova Area Control Center LIVR Passo Rolle
LIPQ Ronchi Dei Legionari LIMS Piacenza
LIPR Rimini LIMH Pian Rosa
LIPS Treviso / Istrana LIVM Punta Marina
LIPT Vicenza LIVE Resia Pass
LIPU Padova LIPR Rimini
LIPX Verona / Villafranca LIPQ Ronchi Dei Legionari
LIPY Falconara LIVO Tarvisio
LIPZ Venezia / Tessera LIMK Torino / Bric Della Croce
LIVC Monte Cimone LIMF Torino / Caselle
LIVD Dobbiaco LIPS Treviso / Istrana
LIVE Resia Pass LIPH Treviso / S. Angelo
LIVF Frontone LIVT
Trieste
LIVM Punta Marina LIPD Udine / Campoformido
LIVO Tarvisio LIPI Udine / Rivolto
LIVP Paganella LIPZ Venezia / Tessera
LIVR Passo Rolle LIPX Verona / Villafranca
LIVT Trieste LIPT Vicenza

 

 

 

 

 

 

 

 

 

 

 

 

 

 

 

 

 

 

 

 

 

 

 

 

 

 

 

 

 

 

 

 

 

 

 

 

 

 

 

 

 

 

 

 

 

 

 

 

 

 

 

 

 

 

 

 

 

 

 

 

L'Aeroclub di Padova si limita a riportare informazioni fornite da terze parti, e non ha quindi alcuna responsabilità sul contenuto. Per la pianificazione dei propri voli si raccomanda l'utilizzo delle fonti ufficiali.

Copyright 2011. Free joomla templates | © Aeroclub Padova - Scuola di Volo, Ditta di manutenzione, CAMO Via Sorio, 89 - 35141 Padova Tel. 049 8718599 Fax 049 8717699 info@aeroclubpadova.it